TimeEST,TemperatureF,Dew PointF,Humidity,Sea Level PressureIn,VisibilityMPH,Wind Direction,Wind SpeedMPH,Gust SpeedMPH,PrecipitationIn,Events,Conditions,WindDirDegrees,DateUTC
12:00 AM,12.7,2.3,63,30.20,10.0,NE,6.9,-,N/A,,Clear,50,2014-02-28 05:00:00
12:15 AM,12.7,1.8,62,30.20,10.0,NE,6.9,-,N/A,,Clear,40,2014-02-28 05:15:00
12:35 AM,12.7,1.9,62,30.20,10.0,NE,6.9,-,N/A,,Clear,50,2014-02-28 05:35:00
12:55 AM,12.7,2.3,63,30.20,10.0,NE,5.8,-,N/A,,Clear,40,2014-02-28 05:55:00
1:15 AM,12.7,2.7,64,30.20,10.0,NNE,5.8,-,N/A,,Clear,30,2014-02-28 06:15:00
1:35 AM,11.1,1.4,65,30.21,10.0,NE,6.9,-,N/A,,Clear,50,2014-02-28 06:35:00
1:55 AM,12.7,1.9,62,30.22,10.0,ENE,5.8,-,N/A,,Clear,60,2014-02-28 06:55:00
2:15 AM,10.2,0.5,65,30.22,10.0,ENE,4.6,-,N/A,,Clear,70,2014-02-28 07:15:00
2:35 AM,10.2,-0.4,62,30.23,10.0,East,3.5,-,N/A,,Clear,80,2014-02-28 07:35:00
2:55 AM,10.2,-0.8,61,30.23,10.0,East,5.8,-,N/A,,Clear,80,2014-02-28 07:55:00
3:15 AM,10.2,-0.8,61,30.23,10.0,ENE,3.5,-,N/A,,Clear,70,2014-02-28 08:15:00
3:35 AM,10.2,0.9,66,30.23,10.0,NE,5.8,-,N/A,,Clear,50,2014-02-28 08:35:00
3:55 AM,10.2,0.3,64,30.23,10.0,ENE,5.8,-,N/A,,Clear,60,2014-02-28 08:55:00
4:15 AM,10.2,-0.6,62,30.23,10.0,ENE,4.6,-,N/A,,Clear,60,2014-02-28 09:15:00
4:40 AM,10.2,-0.6,62,30.23,10.0,East,5.8,-,N/A,,Clear,80,2014-02-28 09:40:00
4:55 AM,10.2,-1.1,60,30.24,10.0,ENE,4.6,-,N/A,,Clear,70,2014-02-28 09:55:00
5:15 AM,10.2,-1.3,60,30.25,10.0,East,5.8,-,N/A,,Clear,80,2014-02-28 10:15:00
5:35 AM,9.7,-1.5,61,30.25,10.0,ENE,4.6,-,N/A,,Clear,70,2014-02-28 10:35:00
5:55 AM,9.0,-1.5,63,30.26,10.0,Calm,Calm,-,N/A,,Clear,0,2014-02-28 10:55:00
6:15 AM,9.0,-1.8,62,30.26,10.0,East,4.6,-,N/A,,Clear,80,2014-02-28 11:15:00
6:35 AM,9.0,-1.5,63,30.26,10.0,ENE,4.6,-,N/A,,Clear,60,2014-02-28 11:35:00
6:55 AM,9.1,-2.0,61,30.26,10.0,Calm,Calm,-,N/A,,Clear,0,2014-02-28 11:55:00
7:15 AM,9.5,-1.8,60,30.27,10.0,ENE,3.5,-,N/A,,Clear,70,2014-02-28 12:15:00
7:35 AM,10.2,-1.8,58,30.27,10.0,Calm,Calm,-,N/A,,Clear,0,2014-02-28 12:35:00
7:55 AM,12.7,-0.8,55,30.28,10.0,East,3.5,-,N/A,,Clear,80,2014-02-28 12:55:00
8:15 AM,12.7,-1.8,52,30.28,10.0,East,5.8,-,N/A,,Clear,80,2014-02-28 13:15:00
8:35 AM,14.5,-1.1,50,30.28,10.0,ESE,4.6,-,N/A,,Clear,110,2014-02-28 13:35:00
8:55 AM,15.3,-1.1,48,30.28,10.0,ESE,9.2,-,N/A,,Clear,110,2014-02-28 13:55:00
9:20 AM,17.6,0.3,47,30.28,10.0,SE,6.9,-,N/A,,Clear,140,2014-02-28 14:20:00
9:35 AM,17.6,-0.4,45,30.28,10.0,SE,9.2,-,N/A,,Clear,140,2014-02-28 14:35:00
9:55 AM,18.3,-1.7,42,30.28,10.0,ESE,8.1,-,N/A,,Clear,120,2014-02-28 14:55:00
10:15 AM,19.6,-0.4,42,30.28,10.0,SE,6.9,-,N/A,,Clear,140,2014-02-28 15:15:00
10:35 AM,20.3,-1.3,39,30.28,10.0,SE,5.8,-,N/A,,Clear,130,2014-02-28 15:35:00
10:55 AM,22.1,-1.1,36,30.28,10.0,SSE,9.2,-,N/A,,Clear,160,2014-02-28 15:55:00
11:15 AM,22.8,-1.8,34,30.27,10.0,SSE,6.9,-,N/A,,Clear,150,2014-02-28 16:15:00
11:35 AM,25.3,-1.7,31,30.27,10.0,SE,9.2,-,N/A,,Clear,140,2014-02-28 16:35:00
11:55 AM,27.9,-0.9,29,30.26,10.0,SSE,8.1,-,N/A,,Clear,150,2014-02-28 16:55:00
12:15 PM,27.9,-2.7,27,30.26,10.0,South,3.5,-,N/A,,Clear,180,2014-02-28 17:15:00
12:35 PM,27.9,-3.5,26,30.25,10.0,ESE,4.6,-,N/A,,Clear,120,2014-02-28 17:35:00
12:55 PM,28.0,-4.5,24,30.24,10.0,SE,11.5,-,N/A,,Clear,140,2014-02-28 17:55:00
1:15 PM,30.2,-3.8,23,30.22,10.0,SSE,5.8,-,N/A,,Clear,160,2014-02-28 18:15:00
1:35 PM,31.1,-3.5,23,30.20,10.0,SE,11.5,-,N/A,,Clear,130,2014-02-28 18:35:00
2:00 PM,32.5,-2.9,22,30.19,10.0,SE,8.1,-,N/A,,Clear,130,2014-02-28 19:00:00
2:15 PM,32.5,-4.4,20,30.19,10.0,South,4.6,-,N/A,,Clear,180,2014-02-28 19:15:00
2:35 PM,32.5,-4.7,20,30.18,10.0,SE,8.1,-,N/A,,Clear,140,2014-02-28 19:35:00
2:55 PM,33.1,-4.2,20,30.18,10.0,South,8.1,-,N/A,,Clear,170,2014-02-28 19:55:00
3:15 PM,32.5,-4.4,20,30.18,10.0,South,6.9,-,N/A,,Clear,170,2014-02-28 20:15:00
3:35 PM,35.1,-4.4,19,30.17,10.0,SE,9.2,-,N/A,,Clear,130,2014-02-28 20:35:00
3:55 PM,35.1,-5.6,17,30.16,10.0,SE,6.9,-,N/A,,Clear,130,2014-02-28 20:55:00
4:15 PM,35.1,-4.2,19,30.16,10.0,SSE,9.2,-,N/A,,Clear,160,2014-02-28 21:15:00
4:35 PM,35.1,-4.4,19,30.15,10.0,SSE,6.9,-,N/A,,Clear,150,2014-02-28 21:35:00
4:55 PM,35.1,-3.1,20,30.13,10.0,SE,12.7,-,N/A,,Clear,140,2014-02-28 21:55:00
5:15 PM,35.1,-3.6,19,30.12,10.0,SSE,9.2,-,N/A,,Clear,150,2014-02-28 22:15:00
5:35 PM,35.1,-1.7,21,30.11,10.0,SSE,11.5,-,N/A,,Clear,150,2014-02-28 22:35:00
5:55 PM,35.1,-1.5,21,30.11,10.0,SSE,5.8,-,N/A,,Clear,150,2014-02-28 22:55:00
6:15 PM,33.6,-0.9,23,30.11,10.0,SSE,6.9,-,N/A,,Clear,150,2014-02-28 23:15:00
6:35 PM,32.5,-1.1,24,30.11,10.0,ESE,4.6,-,N/A,,Clear,120,2014-02-28 23:35:00
6:55 PM,32.5,1.2,26,30.11,10.0,East,3.5,-,N/A,,Clear,100,2014-02-28 23:55:00
7:15 PM,32.5,4.1,30,30.10,7.0,East,4.6,-,N/A,,Clear,80,2014-03-01 00:15:00
7:35 PM,32.5,4.8,31,30.11,10.0,ENE,3.5,-,N/A,,Clear,70,2014-03-01 00:35:00
7:55 PM,31.5,6.6,35,30.11,10.0,East,3.5,-,N/A,,Clear,80,2014-03-01 00:55:00
8:15 PM,27.9,14.2,57,30.12,-9999.0,Calm,Calm,-,N/A,,Clear,0,2014-03-01 01:15:00
8:35 PM,27.9,12.9,54,30.11,-9999.0,Calm,Calm,-,N/A,,Clear,0,2014-03-01 01:35:00
8:55 PM,27.9,14.9,58,30.12,-9999.0,Calm,Calm,-,N/A,,Clear,0,2014-03-01 01:55:00
9:15 PM,27.9,16.3,62,30.12,-9999.0,Calm,Calm,-,N/A,,Clear,0,2014-03-01 02:15:00
9:35 PM,25.3,14.0,62,30.12,-9999.0,NNE,3.5,-,N/A,,Clear,30,2014-03-01 02:35:00
9:55 PM,23.4,13.1,65,30.13,10.0,Calm,Calm,-,N/A,,Clear,0,2014-03-01 02:55:00
10:15 PM,22.8,12.2,64,30.13,10.0,Calm,Calm,-,N/A,,Clear,0,2014-03-01 03:15:00
10:35 PM,22.8,12.4,64,30.13,10.0,Calm,Calm,-,N/A,,Clear,0,2014-03-01 03:35:00
10:55 PM,22.8,12.7,65,30.13,10.0,Calm,Calm,-,N/A,,Clear,0,2014-03-01 03:55:00
11:15 PM,22.8,12.2,64,30.13,10.0,Calm,Calm,-,N/A,,Clear,0,2014-03-01 04:15:00
11:35 PM,22.8,12.2,64,30.12,10.0,Calm,Calm,-,N/A,,Clear,0,2014-03-01 04:35:00
11:55 PM,21.9,12.7,68,30.11,10.0,Calm,Calm,-,N/A,,Clear,0,2014-03-01 04:55:00